sensor_id;sensor_type;location;lat;lon;timestamp;pressure;altitude;pressure_sealevel;temperature;humidity
7832;BME280;3961;42.058;25.586;2023-05-29T00:01:13;64144.50;;;17.05;100.00
7832;BME280;3961;42.058;25.586;2023-05-29T00:03:38;64151.50;;;17.11;100.00
7832;BME280;3961;42.058;25.586;2023-05-29T00:06:04;64146.97;;;17.02;100.00
7832;BME280;3961;42.058;25.586;2023-05-29T00:08:31;64152.66;;;17.12;100.00
7832;BME280;3961;42.058;25.586;2023-05-29T00:10:57;64161.75;;;17.18;100.00
7832;BME280;3961;42.058;25.586;2023-05-29T00:13:23;64154.06;;;17.16;100.00
7832;BME280;3961;42.058;25.586;2023-05-29T00:15:48;64159.66;;;17.18;100.00
7832;BME280;3961;42.058;25.586;2023-05-29T00:18:13;64104.97;;;16.70;100.00
7832;BME280;3961;42.058;25.586;2023-05-29T00:20:39;64162.91;;;17.19;100.00
7832;BME280;3961;42.058;25.586;2023-05-29T00:23:05;64144.88;;;17.03;100.00
7832;BME280;3961;42.058;25.586;2023-05-29T00:25:32;64147.19;;;17.05;100.00
7832;BME280;3961;42.058;25.586;2023-05-29T00:27:57;64159.41;;;17.16;100.00
7832;BME280;3961;42.058;25.586;2023-05-29T00:30:23;64154.19;;;17.11;100.00
7832;BME280;3961;42.058;25.586;2023-05-29T00:32:48;64137.53;;;16.99;100.00
7832;BME280;3961;42.058;25.586;2023-05-29T00:35:14;64148.34;;;17.06;100.00
7832;BME280;3961;42.058;25.586;2023-05-29T00:37:39;64152.44;;;17.09;100.00
7832;BME280;3961;42.058;25.586;2023-05-29T00:40:05;64124.53;;;16.85;100.00
7832;BME280;3961;42.058;25.586;2023-05-29T00:42:32;64118.94;;;16.83;100.00
7832;BME280;3961;42.058;25.586;2023-05-29T00:44:57;64117.41;;;16.84;100.00
7832;BME280;3961;42.058;25.586;2023-05-29T00:47:23;64137.31;;;16.96;100.00
7832;BME280;3961;42.058;25.586;2023-05-29T00:49:49;64141.03;;;17.02;100.00
7832;BME280;3961;42.058;25.586;2023-05-29T00:52:17;64146.84;;;17.07;100.00
7832;BME280;3961;42.058;25.586;2023-05-29T00:54:43;64137.31;;;16.96;100.00
7832;BME280;3961;42.058;25.586;2023-05-29T00:57:10;64132.88;;;16.95;100.00
7832;BME280;3961;42.058;25.586;2023-05-29T00:59:37;64143.13;;;17.01;100.00
7832;BME280;3961;42.058;25.586;2023-05-29T01:02:03;64131.72;;;16.94;100.00
7832;BME280;3961;42.058;25.586;2023-05-29T01:04:29;64154.19;;;17.11;100.00
7832;BME280;3961;42.058;25.586;2023-05-29T01:06:58;64154.63;;;17.16;100.00
7832;BME280;3961;42.058;25.586;2023-05-29T01:09:24;64161.16;;;17.17;100.00
7832;BME280;3961;42.058;25.586;2023-05-29T01:28:41;64143.94;;;17.04;100.00
7832;BME280;3961;42.058;25.586;2023-05-29T01:31:08;64129.97;;;16.92;100.00
7832;BME280;3961;42.058;25.586;2023-05-29T01:33:38;64137.66;;;16.94;100.00
7832;BME280;3961;42.058;25.586;2023-05-29T01:36:08;64124.75;;;16.88;100.00
7832;BME280;3961;42.058;25.586;2023-05-29T01:38:35;64133.81;;;16.93;100.00
7832;BME280;3961;42.058;25.586;2023-05-29T01:41:01;64157.44;;;17.11;100.00
7832;BME280;3961;42.058;25.586;2023-05-29T01:43:28;64156.50;;;17.13;100.00
7832;BME280;3961;42.058;25.586;2023-05-29T01:45:54;64156.16;;;17.15;100.00
7832;BME280;3961;42.058;25.586;2023-05-29T01:48:21;64148.13;;;17.03;100.00
7832;BME280;3961;42.058;25.586;2023-05-29T01:50:47;64149.53;;;17.07;100.00
7832;BME280;3961;42.058;25.586;2023-05-29T01:53:13;64149.41;;;17.11;100.00
7832;BME280;3961;42.058;25.586;2023-05-29T01:55:39;64147.53;;;17.03;100.00
7832;BME280;3961;42.058;25.586;2023-05-29T01:58:05;64137.19;;;17.01;100.00
7832;BME280;3961;42.058;25.586;2023-05-29T02:00:32;64143.13;;;17.01;100.00
7832;BME280;3961;42.058;25.586;2023-05-29T02:02:58;64141.97;;;17.00;100.00
7832;BME280;3961;42.058;25.586;2023-05-29T02:05:23;64143.69;;;17.02;100.00
7832;BME280;3961;42.058;25.586;2023-05-29T02:07:49;64120.81;;;16.79;100.00
7832;BME280;3961;42.058;25.586;2023-05-29T02:10:14;64128.00;;;16.88;100.00
7832;BME280;3961;42.058;25.586;2023-05-29T02:12:40;64120.09;;;16.84;100.00
7832;BME280;3961;42.058;25.586;2023-05-29T02:15:06;64129.19;;;16.89;100.00
7832;BME280;3961;42.058;25.586;2023-05-29T02:17:32;64132.41;;;16.90;100.00
7832;BME280;3961;42.058;25.586;2023-05-29T02:19:59;64117.53;;;16.79;100.00
7832;BME280;3961;42.058;25.586;2023-05-29T02:22:24;64137.31;;;16.96;100.00
7832;BME280;3961;42.058;25.586;2023-05-29T02:24:50;64133.81;;;16.93;100.00
7832;BME280;3961;42.058;25.586;2023-05-29T02:27:15;64133.22;;;16.93;100.00
7832;BME280;3961;42.058;25.586;2023-05-29T02:29:41;64148.59;;;17.08;100.00
7832;BME280;3961;42.058;25.586;2023-05-29T02:32:06;64142.53;;;17.01;100.00
7832;BME280;3961;42.058;25.586;2023-05-29T02:34:32;64136.38;;;16.98;100.00
7832;BME280;3961;42.058;25.586;2023-05-29T02:36:57;64136.00;;;17.00;100.00
7832;BME280;3961;42.058;25.586;2023-05-29T02:39:23;64134.63;;;16.96;100.00
7832;BME280;3961;42.058;25.586;2023-05-29T02:41:49;64137.53;;;16.99;100.00
7832;BME280;3961;42.058;25.586;2023-05-29T02:44:14;64141.72;;;16.98;100.00
7832;BME280;3961;42.058;25.586;2023-05-29T02:46:40;64126.63;;;16.85;100.00
7832;BME280;3961;42.058;25.586;2023-05-29T02:49:05;64132.88;;;16.95;100.00
7832;BME280;3961;42.058;25.586;2023-05-29T02:51:31;64146.38;;;17.02;100.00
7832;BME280;3961;42.058;25.586;2023-05-29T02:53:57;64138.47;;;16.97;100.00
7832;BME280;3961;42.058;25.586;2023-05-29T02:56:23;64135.91;;;16.93;100.00
7832;BME280;3961;42.058;25.586;2023-05-29T02:58:50;64139.28;;;17.00;100.00
7832;BME280;3961;42.058;25.586;2023-05-29T03:01:17;64138.81;;;16.95;100.00
7832;BME280;3961;42.058;25.586;2023-05-29T03:03:42;64143.94;;;17.04;100.00
7832;BME280;3961;42.058;25.586;2023-05-29T03:06:08;64151.50;;;17.11;100.00
7832;BME280;3961;42.058;25.586;2023-05-29T03:08:35;64123.59;;;16.87;100.00
7832;BME280;3961;42.058;25.586;2023-05-29T03:11:08;64135.31;;;16.92;100.00
7832;BME280;3961;42.058;25.586;2023-05-29T03:13:37;64127.19;;;16.85;100.00
7832;BME280;3961;42.058;25.586;2023-05-29T03:16:03;64121.25;;;16.85;100.00
7832;BME280;3961;42.058;25.586;2023-05-29T03:18:28;64136.94;;;16.98;100.00
7832;BME280;3961;42.058;25.586;2023-05-29T03:20:54;64132.88;;;16.95;100.00
7832;BME280;3961;42.058;25.586;2023-05-29T03:23:20;64139.84;;;17.01;100.00
7832;BME280;3961;42.058;25.586;2023-05-29T03:25:45;64137.41;;;16.92;100.00
7832;BME280;3961;42.058;25.586;2023-05-29T03:28:11;64145.44;;;17.03;100.00
7832;BME280;3961;42.058;25.586;2023-05-29T03:30:36;64144.88;;;17.03;100.00
7832;BME280;3961;42.058;25.586;2023-05-29T03:33:02;64146.97;;;17.02;100.00
7832;BME280;3961;42.058;25.586;2023-05-29T03:35:31;64141.03;;;17.02;100.00
7832;BME280;3961;42.058;25.586;2023-05-29T03:37:56;64130.78;;;16.95;100.00
7832;BME280;3961;42.058;25.586;2023-05-29T03:40:22;64138.69;;;17.00;100.00
7832;BME280;3961;42.058;25.586;2023-05-29T03:42:47;64156.50;;;17.13;100.00
7832;BME280;3961;42.058;25.586;2023-05-29T03:45:13;64155.94;;;17.12;100.00
7832;BME280;3961;42.058;25.586;2023-05-29T03:47:38;64146.63;;;17.04;100.00
7832;BME280;3961;42.058;25.586;2023-05-29T03:50:04;64161.16;;;17.17;100.00
7832;BME280;3961;42.058;25.586;2023-05-29T03:52:30;64114.41;;;16.74;100.00
7832;BME280;3961;42.058;25.586;2023-05-29T03:54:55;64165.44;;;17.23;100.00
7832;BME280;3961;42.058;25.586;2023-05-29T03:57:20;64123.72;;;16.82;100.00
7832;BME280;3961;42.058;25.586;2023-05-29T03:59:46;64178.25;;;17.34;100.00
7832;BME280;3961;42.058;25.586;2023-05-29T04:02:11;64183.13;;;17.41;100.00
7832;BME280;3961;42.058;25.586;2023-05-29T04:04:37;64176.03;;;17.28;100.00
7832;BME280;3961;42.058;25.586;2023-05-29T04:07:05;64163.94;;;17.24;100.00
7832;BME280;3961;42.058;25.586;2023-05-29T04:09:32;64176.72;;;17.35;100.00
7832;BME280;3961;42.058;25.586;2023-05-29T04:11:58;64173.38;;;17.28;100.00
7832;BME280;3961;42.058;25.586;2023-05-29T04:14:25;64188.97;;;17.46;100.00
7832;BME280;3961;42.058;25.586;2023-05-29T04:16:50;64206.53;;;17.57;100.00
7832;BME280;3961;42.058;25.586;2023-05-29T04:19:16;64209.78;;;17.57;100.00
7832;BME280;3961;42.058;25.586;2023-05-29T04:21:41;64214.34;;;17.66;100.00
7832;BME280;3961;42.058;25.586;2023-05-29T04:24:07;64220.53;;;17.69;100.00
7832;BME280;3961;42.058;25.586;2023-05-29T04:26:33;64243.22;;;17.89;100.00
7832;BME280;3961;42.058;25.586;2023-05-29T04:28:58;64273.28;;;18.12;100.00
7832;BME280;3961;42.058;25.586;2023-05-29T04:31:25;64294.13;;;18.35;100.00
7832;BME280;3961;42.058;25.586;2023-05-29T04:33:52;64299.25;;;18.33;100.00
7832;BME280;3961;42.058;25.586;2023-05-29T04:36:24;64332.72;;;18.64;100.00
7832;BME280;3961;42.058;25.586;2023-05-29T04:38:53;64319.28;;;18.53;100.00
7832;BME280;3961;42.058;25.586;2023-05-29T04:41:19;64327.56;;;18.67;100.00
7832;BME280;3961;42.058;25.586;2023-05-29T04:43:44;64322.44;;;18.58;100.00
7832;BME280;3961;42.058;25.586;2023-05-29T04:46:11;64332.72;;;18.64;100.00
7832;BME280;3961;42.058;25.586;2023-05-29T04:48:40;64304.38;;;18.42;100.00
7832;BME280;3961;42.058;25.586;2023-05-29T04:51:06;64340.88;;;18.71;100.00
7832;BME280;3961;42.058;25.586;2023-05-29T04:53:32;64338.78;;;18.72;100.00
7832;BME280;3961;42.058;25.586;2023-05-29T04:55:58;64344.25;;;18.79;100.00
7832;BME280;3961;42.058;25.586;2023-05-29T04:58:25;64339.94;;;18.73;100.00
7832;BME280;3961;42.058;25.586;2023-05-29T05:00:51;64334.34;;;18.70;100.00
7832;BME280;3961;42.058;25.586;2023-05-29T05:03:17;64356.81;;;18.88;100.00
7832;BME280;3961;42.058;25.586;2023-05-29T05:05:42;64358.56;;;18.89;100.00
7832;BME280;3961;42.058;25.586;2023-05-29T05:08:09;64377.25;;;19.05;100.00
7832;BME280;3961;42.058;25.586;2023-05-29T05:10:37;64428.78;;;19.53;100.00
7832;BME280;3961;42.058;25.586;2023-05-29T05:13:02;64540.00;;;20.47;100.00
7832;BME280;3961;42.058;25.586;2023-05-29T05:15:28;64628.22;;;21.24;100.00
7832;BME280;3961;42.058;25.586;2023-05-29T05:17:54;64722.34;;;22.05;100.00
7832;BME280;3961;42.058;25.586;2023-05-29T05:20:19;64714.38;;;22.01;100.00
7832;BME280;3961;42.058;25.586;2023-05-29T05:22:45;64783.97;;;22.61;100.00
7832;BME280;3961;42.058;25.586;2023-05-29T05:25:10;64815.97;;;22.87;100.00
7832;BME280;3961;42.058;25.586;2023-05-29T05:27:37;64844.63;;;23.11;100.00
7832;BME280;3961;42.058;25.586;2023-05-29T05:30:05;65008.69;;;24.54;100.00
7832;BME280;3961;42.058;25.586;2023-05-29T05:32:32;65036.84;;;24.78;100.00
7832;BME280;3961;42.058;25.586;2023-05-29T05:34:57;64979.53;;;24.24;100.00
7832;BME280;3961;42.058;25.586;2023-05-29T05:37:23;65046.81;;;24.87;100.00
7832;BME280;3961;42.058;25.586;2023-05-29T05:39:50;65042.69;;;24.83;100.00
7832;BME280;3961;42.058;25.586;2023-05-29T05:42:16;65009.50;;;24.57;100.00
7832;BME280;3961;42.058;25.586;2023-05-29T05:44:41;64935.22;;;23.88;100.00
7832;BME280;3961;42.058;25.586;2023-05-29T05:47:07;64856.56;;;23.24;100.00
7832;BME280;3961;42.058;25.586;2023-05-29T05:49:33;64807.28;;;22.74;100.00
7832;BME280;3961;42.058;25.586;2023-05-29T05:51:58;64758.25;;;22.39;100.00
7832;BME280;3961;42.058;25.586;2023-05-29T05:54:24;64746.69;;;22.24;100.00
7832;BME280;3961;42.058;25.586;2023-05-29T05:56:49;64707.34;;;21.95;100.00
7832;BME280;3961;42.058;25.586;2023-05-29T05:59:14;64827.44;;;22.94;100.00
7832;BME280;3961;42.058;25.586;2023-05-29T06:01:40;64838.00;;;23.03;100.00
7832;BME280;3961;42.058;25.586;2023-05-29T06:04:06;64837.25;;;23.07;100.00
7832;BME280;3961;42.058;25.586;2023-05-29T06:06:32;64824.75;;;22.94;100.00
7832;BME280;3961;42.058;25.586;2023-05-29T06:08:58;64829.44;;;22.98;100.00
7832;BME280;3961;42.058;25.586;2023-05-29T06:11:24;64812.44;;;22.84;100.00
7832;BME280;3961;42.058;25.586;2023-05-29T06:13:51;64801.88;;;22.74;100.00
7832;BME280;3961;42.058;25.586;2023-05-29T06:16:17;64772.28;;;22.51;100.00
7832;BME280;3961;42.058;25.586;2023-05-29T06:18:43;64779.66;;;22.55;100.00
7832;BME280;3961;42.058;25.586;2023-05-29T06:21:09;64804.81;;;22.77;100.00
7832;BME280;3961;42.058;25.586;2023-05-29T06:23:35;64797.00;;;22.68;100.00
7832;BME280;3961;42.058;25.586;2023-05-29T06:26:02;64823.72;;;22.89;100.00
7832;BME280;3961;42.058;25.586;2023-05-29T06:28:29;64833.75;;;23.04;100.00
7832;BME280;3961;42.058;25.586;2023-05-29T06:30:54;64852.84;;;23.19;100.00
7832;BME280;3961;42.058;25.586;2023-05-29T06:33:20;64871.00;;;23.34;100.00
7832;BME280;3961;42.058;25.586;2023-05-29T06:35:46;64937.19;;;23.92;100.00
7832;BME280;3961;42.058;25.586;2023-05-29T06:38:13;64997.56;;;24.44;100.00
7832;BME280;3961;42.058;25.586;2023-05-29T06:40:39;65027.84;;;24.68;100.00
7832;BME280;3961;42.058;25.586;2023-05-29T06:43:04;65050.69;;;24.88;100.00
7832;BME280;3961;42.058;25.586;2023-05-29T06:45:30;65082.38;;;25.15;100.00
7832;BME280;3961;42.058;25.586;2023-05-29T06:47:55;65023.94;;;24.67;100.00
7832;BME280;3961;42.058;25.586;2023-05-29T06:50:21;65004.00;;;24.50;100.00
7832;BME280;3961;42.058;25.586;2023-05-29T06:52:47;64932.13;;;23.90;100.00
7832;BME280;3961;42.058;25.586;2023-05-29T06:55:12;64913.78;;;23.71;100.00
7832;BME280;3961;42.058;25.586;2023-05-29T06:57:38;64937.56;;;23.90;100.00
7832;BME280;3961;42.058;25.586;2023-05-29T07:00:05;64908.13;;;23.69;100.00
7832;BME280;3961;42.058;25.586;2023-05-29T07:02:31;64890.09;;;23.49;100.00
7832;BME280;3961;42.058;25.586;2023-05-29T07:04:57;64893.97;;;23.50;100.00
7832;BME280;3961;42.058;25.586;2023-05-29T07:07:23;64911.63;;;23.72;100.00
7832;BME280;3961;42.058;25.586;2023-05-29T07:09:48;64976.81;;;24.24;100.00
7832;BME280;3961;42.058;25.586;2023-05-29T07:12:14;65049.53;;;24.87;100.00
7832;BME280;3961;42.058;25.586;2023-05-29T07:14:39;65077.91;;;25.14;100.00
7832;BME280;3961;42.058;25.586;2023-05-29T07:17:05;65158.09;;;25.81;98.90
7832;BME280;3961;42.058;25.586;2023-05-29T07:19:31;65153.41;;;25.76;99.89
7832;BME280;3961;42.058;25.586;2023-05-29T07:21:59;65139.34;;;25.64;96.80
7832;BME280;3961;42.058;25.586;2023-05-29T07:24:25;65182.97;;;26.04;95.95
7832;BME280;3961;42.058;25.586;2023-05-29T07:26:50;65184.72;;;26.06;95.75
7832;BME280;3961;42.058;25.586;2023-05-29T07:29:16;65235.84;;;26.50;95.81
7832;BME280;3961;42.058;25.586;2023-05-29T07:31:43;65269.13;;;26.76;94.22
7832;BME280;3961;42.058;25.586;2023-05-29T07:34:10;65262.06;;;26.70;93.68
7832;BME280;3961;42.058;25.586;2023-05-29T07:36:35;65241.50;;;26.53;94.60
7832;BME280;3961;42.058;25.586;2023-05-29T07:39:01;65223.28;;;26.37;95.81
7832;BME280;3961;42.058;25.586;2023-05-29T07:41:27;65201.56;;;26.18;94.78
7832;BME280;3961;42.058;25.586;2023-05-29T07:43:52;65179.25;;;25.99;96.23
7832;BME280;3961;42.058;25.586;2023-05-29T07:46:19;65116.19;;;25.42;95.49
7832;BME280;3961;42.058;25.586;2023-05-29T07:48:44;65056.19;;;24.95;96.00
7832;BME280;3961;42.058;25.586;2023-05-29T07:51:12;65012.22;;;24.57;98.55
7832;BME280;3961;42.058;25.586;2023-05-29T07:53:38;64982.91;;;24.31;100.00
7832;BME280;3961;42.058;25.586;2023-05-29T07:56:03;64971.75;;;24.22;100.00
7832;BME280;3961;42.058;25.586;2023-05-29T07:58:29;64978.00;;;24.25;100.00
7832;BME280;3961;42.058;25.586;2023-05-29T08:00:54;64967.22;;;24.13;100.00
7832;BME280;3961;42.058;25.586;2023-05-29T08:03:20;64932.28;;;23.85;100.00
7832;BME280;3961;42.058;25.586;2023-05-29T08:05:46;64967.66;;;24.18;100.00
7832;BME280;3961;42.058;25.586;2023-05-29T08:08:11;64935.44;;;23.90;100.00
7832;BME280;3961;42.058;25.586;2023-05-29T08:10:38;64909.66;;;23.68;100.00
7832;BME280;3961;42.058;25.586;2023-05-29T08:13:04;64917.03;;;23.72;100.00
7832;BME280;3961;42.058;25.586;2023-05-29T08:15:30;64930.38;;;23.88;100.00
7832;BME280;3961;42.058;25.586;2023-05-29T08:17:57;64934.25;;;23.89;100.00
7832;BME280;3961;42.058;25.586;2023-05-29T08:20:22;64973.28;;;24.21;100.00
7832;BME280;3961;42.058;25.586;2023-05-29T08:22:48;64985.84;;;24.34;100.00
7832;BME280;3961;42.058;25.586;2023-05-29T08:25:13;64971.53;;;24.19;100.00
7832;BME280;3961;42.058;25.586;2023-05-29T08:27:39;65048.56;;;24.88;100.00
7832;BME280;3961;42.058;25.586;2023-05-29T08:30:05;65064.81;;;25.00;100.00
7832;BME280;3961;42.058;25.586;2023-05-29T08:32:31;65062.88;;;25.03;100.00
7832;BME280;3961;42.058;25.586;2023-05-29T08:34:56;65114.66;;;25.43;99.18
7832;BME280;3961;42.058;25.586;2023-05-29T08:37:22;65111.34;;;25.42;98.50
7832;BME280;3961;42.058;25.586;2023-05-29T08:39:48;65132.72;;;25.63;98.35
7832;BME280;3961;42.058;25.586;2023-05-29T08:42:21;65134.84;;;25.63;96.14
7832;BME280;3961;42.058;25.586;2023-05-29T08:44:47;65165.16;;;25.87;99.53
7832;BME280;3961;42.058;25.586;2023-05-29T08:47:16;65181.22;;;26.03;97.67
7832;BME280;3961;42.058;25.586;2023-05-29T08:49:51;65193.09;;;26.08;97.94
7832;BME280;3961;42.058;25.586;2023-05-29T08:52:24;65112.31;;;25.41;99.67
7832;BME280;3961;42.058;25.586;2023-05-29T08:54:51;65134.25;;;25.62;97.41
7832;BME280;3961;42.058;25.586;2023-05-29T08:57:17;65150.09;;;25.76;97.16
7832;BME280;3961;42.058;25.586;2023-05-29T08:59:44;65092.94;;;25.24;97.59
7832;BME280;3961;42.058;25.586;2023-05-29T09:02:11;65048.34;;;24.86;100.00
7832;BME280;3961;42.058;25.586;2023-05-29T09:04:37;64967.06;;;24.18;99.04
7832;BME280;3961;42.058;25.586;2023-05-29T09:07:03;65021.97;;;24.63;100.00
7832;BME280;3961;42.058;25.586;2023-05-29T09:09:29;64992.28;;;24.39;100.00
7832;BME280;3961;42.058;25.586;2023-05-29T09:11:57;64926.06;;;23.82;100.00
7832;BME280;3961;42.058;25.586;2023-05-29T09:14:51;64931.69;;;23.85;100.00
7832;BME280;3961;42.058;25.586;2023-05-29T09:17:17;64896.19;;;23.56;100.00
7832;BME280;3961;42.058;25.586;2023-05-29T09:19:43;64911.63;;;23.72;100.00
7832;BME280;3961;42.058;25.586;2023-05-29T09:22:13;64933.66;;;23.89;100.00
7832;BME280;3961;42.058;25.586;2023-05-29T09:24:45;64982.91;;;24.31;100.00
7832;BME280;3961;42.058;25.586;2023-05-29T09:27:11;64969.19;;;24.17;100.00
7832;BME280;3961;42.058;25.586;2023-05-29T09:29:38;65021.97;;;24.63;100.00
7832;BME280;3961;42.058;25.586;2023-05-29T09:32:07;65020.44;;;24.64;100.00
7832;BME280;3961;42.058;25.586;2023-05-29T09:34:34;65009.66;;;24.52;100.00
7832;BME280;3961;42.058;25.586;2023-05-29T09:37:06;65022.34;;;24.61;100.00
7832;BME280;3961;42.058;25.586;2023-05-29T09:42:07;65063.63;;;24.99;100.00
7832;BME280;3961;42.058;25.586;2023-05-29T09:44:32;65058.78;;;24.99;100.00
7832;BME280;3961;42.058;25.586;2023-05-29T09:46:59;65093.75;;;25.27;99.65
7832;BME280;3961;42.058;25.586;2023-05-29T09:49:25;65137.19;;;25.65;100.00
7832;BME280;3961;42.058;25.586;2023-05-29T09:51:55;65087.09;;;25.19;97.26
7832;BME280;3961;42.058;25.586;2023-05-29T09:54:21;65129.31;;;25.56;95.80
7832;BME280;3961;42.058;25.586;2023-05-29T09:56:47;65144.81;;;25.71;95.96
7832;BME280;3961;42.058;25.586;2023-05-29T09:59:15;65170.81;;;25.89;96.27
7832;BME280;3961;42.058;25.586;2023-05-29T10:01:42;65146.94;;;25.71;94.30
7832;BME280;3961;42.058;25.586;2023-05-29T10:04:10;65114.28;;;25.45;96.35
7832;BME280;3961;42.058;25.586;2023-05-29T10:06:40;65116.41;;;25.44;97.90
7832;BME280;3961;42.058;25.586;2023-05-29T10:09:09;65091.63;;;25.28;95.13
7832;BME280;3961;42.058;25.586;2023-05-29T10:11:38;65075.19;;;25.14;95.09
7832;BME280;3961;42.058;25.586;2023-05-29T10:14:09;65090.81;;;25.25;97.31
7832;BME280;3961;42.058;25.586;2023-05-29T10:16:39;65021.59;;;24.65;98.28
7832;BME280;3961;42.058;25.586;2023-05-29T10:19:12;64997.34;;;24.41;100.00
7832;BME280;3961;42.058;25.586;2023-05-29T10:21:39;64998.16;;;24.44;98.43
7832;BME280;3961;42.058;25.586;2023-05-29T10:24:07;65005.78;;;24.51;99.04
7832;BME280;3961;42.058;25.586;2023-05-29T10:26:39;65019.84;;;24.63;98.33
7832;BME280;3961;42.058;25.586;2023-05-29T10:29:25;65082.38;;;25.15;98.56
7832;BME280;3961;42.058;25.586;2023-05-29T10:32:12;65090.81;;;25.25;96.95
7832;BME280;3961;42.058;25.586;2023-05-29T10:35:14;65055.97;;;24.92;96.57
7832;BME280;3961;42.058;25.586;2023-05-29T10:37:51;65026.88;;;24.69;98.01
7832;BME280;3961;42.058;25.586;2023-05-29T10:40:23;65003.06;;;24.51;97.75
7832;BME280;3961;42.058;25.586;2023-05-29T10:42:50;64964.94;;;24.18;98.41
7832;BME280;3961;42.058;25.586;2023-05-29T10:47:54;64612.81;;;21.08;98.67
7832;BME280;3961;42.058;25.586;2023-05-29T10:50:40;64602.50;;;21.01;100.00
7832;BME280;3961;42.058;25.586;2023-05-29T10:53:24;64603.69;;;21.02;100.00
7832;BME280;3961;42.058;25.586;2023-05-29T10:55:51;64568.63;;;20.72;100.00
7832;BME280;3961;42.058;25.586;2023-05-29T10:58:20;64505.34;;;20.14;100.00
7832;BME280;3961;42.058;25.586;2023-05-29T11:00:47;64496.81;;;20.09;100.00
7832;BME280;3961;42.058;25.586;2023-05-29T11:03:22;64513.16;;;20.24;100.00
7832;BME280;3961;42.058;25.586;2023-05-29T11:08:44;64370.81;;;19.00;100.00
7832;BME280;3961;42.058;25.586;2023-05-29T11:11:12;64396.47;;;19.22;100.00
7832;BME280;3961;42.058;25.586;2023-05-29T11:13:37;64340.41;;;18.78;100.00
7832;BME280;3961;42.058;25.586;2023-05-29T11:18:52;64365.00;;;18.95;100.00
7832;BME280;3961;42.058;25.586;2023-05-29T11:24:25;64350.78;;;18.80;100.00
7832;BME280;3961;42.058;25.586;2023-05-29T11:26:52;64341.69;;;18.74;100.00
7832;BME280;3961;42.058;25.586;2023-05-29T11:29:28;64375.03;;;18.99;100.00
7832;BME280;3961;42.058;25.586;2023-05-29T11:31:58;64368.72;;;19.00;100.00
7832;BME280;3961;42.058;25.586;2023-05-29T11:34:27;64394.50;;;19.18;100.00
7832;BME280;3961;42.058;25.586;2023-05-29T11:36:53;64424.25;;;19.44;100.00
7832;BME280;3961;42.058;25.586;2023-05-29T11:39:19;64492.38;;;20.08;100.00
7832;BME280;3961;42.058;25.586;2023-05-29T11:41:50;64548.41;;;20.57;100.00
7832;BME280;3961;42.058;25.586;2023-05-29T11:44:15;64540.00;;;20.47;100.00
7832;BME280;3961;42.058;25.586;2023-05-29T11:46:41;64571.91;;;20.72;100.00
7832;BME280;3961;42.058;25.586;2023-05-29T11:49:06;64599.94;;;20.97;100.00
7832;BME280;3961;42.058;25.586;2023-05-29T11:51:32;64671.69;;;21.64;100.00
7832;BME280;3961;42.058;25.586;2023-05-29T11:53:57;64657.78;;;21.47;100.00
7832;BME280;3961;42.058;25.586;2023-05-29T11:56:32;64637.00;;;21.31;100.00
7832;BME280;3961;42.058;25.586;2023-05-29T11:58:58;64647.53;;;21.40;100.00
7832;BME280;3961;42.058;25.586;2023-05-29T12:01:25;64619.31;;;21.21;100.00
7832;BME280;3961;42.058;25.586;2023-05-29T12:03:52;64612.22;;;21.07;100.00
7832;BME280;3961;42.058;25.586;2023-05-29T12:06:34;64615.34;;;21.12;100.00
7832;BME280;3961;42.058;25.586;2023-05-29T12:09:00;64614.97;;;21.14;100.00
7832;BME280;3961;42.058;25.586;2023-05-29T12:11:27;64617.69;;;21.14;100.00
7832;BME280;3961;42.058;25.586;2023-05-29T12:13:59;64633.13;;;21.30;100.00
7832;BME280;3961;42.058;25.586;2023-05-29T12:16:26;64649.84;;;21.42;100.00
7832;BME280;3961;42.058;25.586;2023-05-29T12:18:53;64676.16;;;21.65;100.00
7832;BME280;3961;42.058;25.586;2023-05-29T12:21:20;64677.09;;;21.64;100.00
7832;BME280;3961;42.058;25.586;2023-05-29T12:23:46;64722.34;;;22.05;100.00
7832;BME280;3961;42.058;25.586;2023-05-29T12:26:12;64725.06;;;22.05;100.00
7832;BME280;3961;42.058;25.586;2023-05-29T12:28:48;64751.38;;;22.28;100.00
7832;BME280;3961;42.058;25.586;2023-05-29T12:31:26;64762.72;;;22.40;100.00
7832;BME280;3961;42.058;25.586;2023-05-29T12:33:52;64785.53;;;22.60;100.00
7832;BME280;3961;42.058;25.586;2023-05-29T12:36:18;64808.72;;;22.78;100.00
7832;BME280;3961;42.058;25.586;2023-05-29T12:38:48;64846.38;;;23.13;100.00
7832;BME280;3961;42.058;25.586;2023-05-29T12:41:41;64830.38;;;22.97;100.00
7832;BME280;3961;42.058;25.586;2023-05-29T12:44:07;64849.69;;;23.13;100.00
7832;BME280;3961;42.058;25.586;2023-05-29T12:46:38;64861.25;;;23.28;100.00
7832;BME280;3961;42.058;25.586;2023-05-29T12:49:14;64886.78;;;23.48;100.00
7832;BME280;3961;42.058;25.586;2023-05-29T12:51:43;64897.34;;;23.57;100.00
7832;BME280;3961;42.058;25.586;2023-05-29T12:54:13;64932.28;;;23.85;100.00
7832;BME280;3961;42.058;25.586;2023-05-29T12:56:40;64955.13;;;24.05;100.00
7832;BME280;3961;42.058;25.586;2023-05-29T12:59:09;64906.38;;;23.67;100.00
7832;BME280;3961;42.058;25.586;2023-05-29T13:01:38;64921.72;;;23.76;100.00
7832;BME280;3961;42.058;25.586;2023-05-29T13:04:04;64924.50;;;23.83;100.00
7832;BME280;3961;42.058;25.586;2023-05-29T13:06:35;64939.53;;;23.94;100.00
7832;BME280;3961;42.058;25.586;2023-05-29T13:09:02;64944.59;;;23.96;100.00
7832;BME280;3961;42.058;25.586;2023-05-29T13:11:27;64946.34;;;23.97;100.00
7832;BME280;3961;42.058;25.586;2023-05-29T13:13:53;64927.22;;;23.83;100.00
7832;BME280;3961;42.058;25.586;2023-05-29T13:16:18;64940.47;;;23.92;100.00
7832;BME280;3961;42.058;25.586;2023-05-29T13:18:44;64911.78;;;23.67;100.00
7832;BME280;3961;42.058;25.586;2023-05-29T13:21:10;64915.13;;;23.75;100.00
7832;BME280;3961;42.058;25.586;2023-05-29T13:23:36;64925.47;;;23.82;100.00
7832;BME280;3961;42.058;25.586;2023-05-29T13:26:03;64908.84;;;23.65;100.00
7832;BME280;3961;42.058;25.586;2023-05-29T13:28:29;64872.75;;;23.36;100.00
7832;BME280;3961;42.058;25.586;2023-05-29T13:30:54;64854.38;;;23.18;100.00
7832;BME280;3961;42.058;25.586;2023-05-29T13:33:20;64785.28;;;22.58;100.00